sensor_id;sensor_type;location;lat;lon;timestamp;P1;durP1;ratioP1;P2;durP2;ratioP2
71696;SDS011;59528;59.082;37.926;2022-08-01T00:02:07;1.30;;;1.00;;
71696;SDS011;59528;59.082;37.926;2022-08-01T00:04:33;3.13;;;0.87;;
71696;SDS011;59528;59.082;37.926;2022-08-01T00:06:58;1.30;;;1.13;;
71696;SDS011;59528;59.082;37.926;2022-08-01T00:09:24;1.90;;;1.20;;
71696;SDS011;59528;59.082;37.926;2022-08-01T00:11:49;2.73;;;1.10;;
71696;SDS011;59528;59.082;37.926;2022-08-01T00:14:18;1.50;;;1.10;;
71696;SDS011;59528;59.082;37.926;2022-08-01T00:16:43;1.27;;;1.17;;
71696;SDS011;59528;59.082;37.926;2022-08-01T00:19:09;3.07;;;1.30;;
71696;SDS011;59528;59.082;37.926;2022-08-01T00:21:35;1.37;;;1.13;;
71696;SDS011;59528;59.082;37.926;2022-08-01T00:24:00;2.03;;;1.20;;
71696;SDS011;59528;59.082;37.926;2022-08-01T00:26:26;5.93;;;1.40;;
71696;SDS011;59528;59.082;37.926;2022-08-01T00:28:52;2.67;;;1.13;;
71696;SDS011;59528;59.082;37.926;2022-08-01T00:31:17;3.67;;;1.13;;
71696;SDS011;59528;59.082;37.926;2022-08-01T00:33:43;2.27;;;1.20;;
71696;SDS011;59528;59.082;37.926;2022-08-01T00:36:08;2.60;;;1.10;;
71696;SDS011;59528;59.082;37.926;2022-08-01T00:38:34;3.63;;;1.17;;
71696;SDS011;59528;59.082;37.926;2022-08-01T00:40:59;2.80;;;1.30;;
71696;SDS011;59528;59.082;37.926;2022-08-01T00:43:25;1.70;;;1.00;;
71696;SDS011;59528;59.082;37.926;2022-08-01T00:45:50;2.07;;;1.23;;
71696;SDS011;59528;59.082;37.926;2022-08-01T00:48:19;1.93;;;1.17;;
71696;SDS011;59528;59.082;37.926;2022-08-01T00:50:45;4.10;;;1.30;;
71696;SDS011;59528;59.082;37.926;2022-08-01T00:53:10;2.97;;;1.20;;
71696;SDS011;59528;59.082;37.926;2022-08-01T00:55:36;3.00;;;1.07;;
71696;SDS011;59528;59.082;37.926;2022-08-01T00:58:01;3.60;;;1.03;;
71696;SDS011;59528;59.082;37.926;2022-08-01T01:00:27;2.33;;;1.10;;
71696;SDS011;59528;59.082;37.926;2022-08-01T01:02:53;2.17;;;1.30;;
71696;SDS011;59528;59.082;37.926;2022-08-01T01:05:18;3.90;;;1.17;;
71696;SDS011;59528;59.082;37.926;2022-08-01T01:12:50;2.63;;;1.00;;
71696;SDS011;59528;59.082;37.926;2022-08-01T01:15:29;2.67;;;1.30;;
71696;SDS011;59528;59.082;37.926;2022-08-01T01:20:37;5.63;;;1.70;;
71696;SDS011;59528;59.082;37.926;2022-08-01T01:23:12;1.70;;;1.00;;
71696;SDS011;59528;59.082;37.926;2022-08-01T01:28:19;3.00;;;1.40;;
71696;SDS011;59528;59.082;37.926;2022-08-01T01:30:47;2.50;;;1.30;;
71696;SDS011;59528;59.082;37.926;2022-08-01T01:33:14;3.77;;;1.40;;
71696;SDS011;59528;59.082;37.926;2022-08-01T01:35:42;3.60;;;1.43;;
71696;SDS011;59528;59.082;37.926;2022-08-01T01:38:27;7.07;;;1.40;;
71696;SDS011;59528;59.082;37.926;2022-08-01T01:40:53;3.87;;;1.70;;
71696;SDS011;59528;59.082;37.926;2022-08-01T01:43:21;3.37;;;1.30;;
71696;SDS011;59528;59.082;37.926;2022-08-01T01:45:48;1.70;;;1.40;;
71696;SDS011;59528;59.082;37.926;2022-08-01T01:48:15;4.60;;;1.60;;
71696;SDS011;59528;59.082;37.926;2022-08-01T01:50:45;3.20;;;1.60;;
71696;SDS011;59528;59.082;37.926;2022-08-01T01:53:12;2.30;;;1.50;;
71696;SDS011;59528;59.082;37.926;2022-08-01T01:55:38;3.63;;;1.43;;
71696;SDS011;59528;59.082;37.926;2022-08-01T01:58:04;2.10;;;1.60;;
71696;SDS011;59528;59.082;37.926;2022-08-01T02:00:31;1.77;;;1.43;;
71696;SDS011;59528;59.082;37.926;2022-08-01T02:02:58;3.53;;;1.60;;
71696;SDS011;59528;59.082;37.926;2022-08-01T02:05:25;2.13;;;1.63;;
71696;SDS011;59528;59.082;37.926;2022-08-01T02:07:51;2.43;;;1.40;;
71696;SDS011;59528;59.082;37.926;2022-08-01T02:10:18;3.23;;;2.90;;
71696;SDS011;59528;59.082;37.926;2022-08-01T02:12:44;15.07;;;11.77;;
71696;SDS011;59528;59.082;37.926;2022-08-01T02:15:11;8.17;;;6.27;;
71696;SDS011;59528;59.082;37.926;2022-08-01T02:17:41;5.47;;;3.40;;
71696;SDS011;59528;59.082;37.926;2022-08-01T02:20:12;5.83;;;3.20;;
71696;SDS011;59528;59.082;37.926;2022-08-01T02:22:52;5.03;;;2.37;;
71696;SDS011;59528;59.082;37.926;2022-08-01T02:25:25;2.67;;;2.30;;
71696;SDS011;59528;59.082;37.926;2022-08-01T02:31:00;2.97;;;1.67;;
71696;SDS011;59528;59.082;37.926;2022-08-01T02:33:27;4.13;;;2.00;;
71696;SDS011;59528;59.082;37.926;2022-08-01T02:35:57;3.13;;;1.90;;
71696;SDS011;59528;59.082;37.926;2022-08-01T02:38:24;3.33;;;2.53;;
71696;SDS011;59528;59.082;37.926;2022-08-01T02:40:52;1.93;;;1.73;;
71696;SDS011;59528;59.082;37.926;2022-08-01T02:43:18;2.57;;;1.60;;
71696;SDS011;59528;59.082;37.926;2022-08-01T02:45:49;3.40;;;1.40;;
71696;SDS011;59528;59.082;37.926;2022-08-01T02:48:17;2.00;;;1.60;;
71696;SDS011;59528;59.082;37.926;2022-08-01T02:50:44;4.07;;;1.60;;
71696;SDS011;59528;59.082;37.926;2022-08-01T02:53:11;2.57;;;1.90;;
71696;SDS011;59528;59.082;37.926;2022-08-01T02:55:40;2.10;;;1.83;;
71696;SDS011;59528;59.082;37.926;2022-08-01T02:58:08;3.70;;;1.90;;
71696;SDS011;59528;59.082;37.926;2022-08-01T03:00:34;3.27;;;1.80;;
71696;SDS011;59528;59.082;37.926;2022-08-01T03:03:01;2.00;;;1.60;;
71696;SDS011;59528;59.082;37.926;2022-08-01T03:05:28;2.87;;;2.00;;
71696;SDS011;59528;59.082;37.926;2022-08-01T03:07:55;3.97;;;1.90;;
71696;SDS011;59528;59.082;37.926;2022-08-01T03:10:21;2.97;;;1.63;;
71696;SDS011;59528;59.082;37.926;2022-08-01T03:12:47;5.70;;;1.80;;
71696;SDS011;59528;59.082;37.926;2022-08-01T03:15:14;2.10;;;1.77;;
71696;SDS011;59528;59.082;37.926;2022-08-01T03:17:44;2.60;;;1.67;;
71696;SDS011;59528;59.082;37.926;2022-08-01T03:20:11;2.37;;;1.43;;
71696;SDS011;59528;59.082;37.926;2022-08-01T03:22:38;2.60;;;1.47;;
71696;SDS011;59528;59.082;37.926;2022-08-01T03:25:04;2.60;;;1.60;;
71696;SDS011;59528;59.082;37.926;2022-08-01T03:27:31;2.73;;;1.60;;
71696;SDS011;59528;59.082;37.926;2022-08-01T03:29:58;3.83;;;1.63;;
71696;SDS011;59528;59.082;37.926;2022-08-01T03:32:24;2.10;;;1.87;;
71696;SDS011;59528;59.082;37.926;2022-08-01T03:34:52;2.87;;;1.73;;
71696;SDS011;59528;59.082;37.926;2022-08-01T03:37:25;2.13;;;1.70;;
71696;SDS011;59528;59.082;37.926;2022-08-01T03:39:55;1.77;;;1.53;;
71696;SDS011;59528;59.082;37.926;2022-08-01T03:42:24;3.50;;;1.90;;
71696;SDS011;59528;59.082;37.926;2022-08-01T03:44:54;7.67;;;5.63;;
71696;SDS011;59528;59.082;37.926;2022-08-01T03:47:24;22.90;;;16.40;;
71696;SDS011;59528;59.082;37.926;2022-08-01T03:49:51;7.43;;;4.50;;
71696;SDS011;59528;59.082;37.926;2022-08-01T03:52:17;12.33;;;9.73;;
71696;SDS011;59528;59.082;37.926;2022-08-01T03:54:45;11.50;;;7.50;;
71696;SDS011;59528;59.082;37.926;2022-08-01T03:57:11;12.47;;;9.30;;
71696;SDS011;59528;59.082;37.926;2022-08-01T03:59:37;14.73;;;9.03;;
71696;SDS011;59528;59.082;37.926;2022-08-01T04:02:04;11.13;;;8.47;;
71696;SDS011;59528;59.082;37.926;2022-08-01T04:04:31;12.47;;;8.20;;
71696;SDS011;59528;59.082;37.926;2022-08-01T04:06:56;8.70;;;6.17;;
71696;SDS011;59528;59.082;37.926;2022-08-01T04:09:22;11.27;;;7.87;;
71696;SDS011;59528;59.082;37.926;2022-08-01T04:11:48;9.93;;;6.90;;
71696;SDS011;59528;59.082;37.926;2022-08-01T04:14:14;7.43;;;4.93;;
71696;SDS011;59528;59.082;37.926;2022-08-01T04:16:39;10.17;;;7.37;;
71696;SDS011;59528;59.082;37.926;2022-08-01T04:19:05;8.27;;;5.20;;
71696;SDS011;59528;59.082;37.926;2022-08-01T04:21:35;8.00;;;5.67;;
71696;SDS011;59528;59.082;37.926;2022-08-01T04:24:02;6.30;;;4.80;;
71696;SDS011;59528;59.082;37.926;2022-08-01T04:26:31;9.30;;;5.87;;
71696;SDS011;59528;59.082;37.926;2022-08-01T04:28:57;11.20;;;6.60;;
71696;SDS011;59528;59.082;37.926;2022-08-01T04:31:24;10.70;;;6.57;;
71696;SDS011;59528;59.082;37.926;2022-08-01T04:33:51;12.40;;;6.90;;
71696;SDS011;59528;59.082;37.926;2022-08-01T04:36:19;11.50;;;6.13;;
71696;SDS011;59528;59.082;37.926;2022-08-01T04:38:48;9.17;;;6.53;;
71696;SDS011;59528;59.082;37.926;2022-08-01T04:41:15;11.93;;;5.77;;
71696;SDS011;59528;59.082;37.926;2022-08-01T04:43:41;9.13;;;6.27;;
71696;SDS011;59528;59.082;37.926;2022-08-01T04:46:07;7.87;;;5.53;;
71696;SDS011;59528;59.082;37.926;2022-08-01T04:48:34;10.30;;;5.50;;
71696;SDS011;59528;59.082;37.926;2022-08-01T04:51:01;12.13;;;6.13;;
71696;SDS011;59528;59.082;37.926;2022-08-01T04:53:26;8.53;;;4.83;;
71696;SDS011;59528;59.082;37.926;2022-08-01T04:55:55;13.23;;;5.23;;
71696;SDS011;59528;59.082;37.926;2022-08-01T04:58:21;12.17;;;5.37;;
71696;SDS011;59528;59.082;37.926;2022-08-01T05:00:46;9.47;;;5.30;;
71696;SDS011;59528;59.082;37.926;2022-08-01T05:03:12;9.93;;;4.83;;
71696;SDS011;59528;59.082;37.926;2022-08-01T05:05:37;10.87;;;4.73;;
71696;SDS011;59528;59.082;37.926;2022-08-01T05:08:03;13.27;;;5.30;;
71696;SDS011;59528;59.082;37.926;2022-08-01T05:10:29;12.97;;;4.73;;
71696;SDS011;59528;59.082;37.926;2022-08-01T05:12:56;9.57;;;4.63;;
71696;SDS011;59528;59.082;37.926;2022-08-01T05:15:21;8.83;;;4.27;;
71696;SDS011;59528;59.082;37.926;2022-08-01T05:17:47;9.60;;;4.33;;
71696;SDS011;59528;59.082;37.926;2022-08-01T05:20:13;12.13;;;4.13;;
71696;SDS011;59528;59.082;37.926;2022-08-01T05:22:38;9.40;;;4.57;;
71696;SDS011;59528;59.082;37.926;2022-08-01T05:25:04;8.37;;;3.87;;
71696;SDS011;59528;59.082;37.926;2022-08-01T05:27:30;11.77;;;3.80;;
71696;SDS011;59528;59.082;37.926;2022-08-01T05:29:59;8.10;;;4.00;;
71696;SDS011;59528;59.082;37.926;2022-08-01T05:32:24;6.83;;;3.63;;
71696;SDS011;59528;59.082;37.926;2022-08-01T05:34:50;5.87;;;3.70;;
71696;SDS011;59528;59.082;37.926;2022-08-01T05:37:16;7.37;;;3.90;;
71696;SDS011;59528;59.082;37.926;2022-08-01T05:39:41;7.37;;;3.67;;
71696;SDS011;59528;59.082;37.926;2022-08-01T05:42:06;8.27;;;3.73;;
71696;SDS011;59528;59.082;37.926;2022-08-01T05:44:32;8.27;;;4.07;;
71696;SDS011;59528;59.082;37.926;2022-08-01T05:46:58;7.33;;;3.83;;
71696;SDS011;59528;59.082;37.926;2022-08-01T05:49:23;7.63;;;3.70;;
71696;SDS011;59528;59.082;37.926;2022-08-01T05:51:49;9.83;;;4.23;;
71696;SDS011;59528;59.082;37.926;2022-08-01T05:54:14;7.07;;;3.50;;
71696;SDS011;59528;59.082;37.926;2022-08-01T05:56:40;6.43;;;3.50;;
71696;SDS011;59528;59.082;37.926;2022-08-01T05:59:06;8.97;;;4.00;;
71696;SDS011;59528;59.082;37.926;2022-08-01T06:01:31;7.03;;;3.20;;
71696;SDS011;59528;59.082;37.926;2022-08-01T06:04:00;9.80;;;3.57;;
71696;SDS011;59528;59.082;37.926;2022-08-01T06:06:26;8.10;;;3.17;;
71696;SDS011;59528;59.082;37.926;2022-08-01T06:08:51;8.07;;;3.33;;
71696;SDS011;59528;59.082;37.926;2022-08-01T06:11:17;7.17;;;3.20;;
71696;SDS011;59528;59.082;37.926;2022-08-01T06:13:42;9.47;;;3.40;;
71696;SDS011;59528;59.082;37.926;2022-08-01T06:16:08;5.57;;;2.93;;
71696;SDS011;59528;59.082;37.926;2022-08-01T06:18:33;6.23;;;2.70;;
71696;SDS011;59528;59.082;37.926;2022-08-01T06:21:00;6.67;;;2.70;;
71696;SDS011;59528;59.082;37.926;2022-08-01T06:23:25;5.27;;;3.10;;
71696;SDS011;59528;59.082;37.926;2022-08-01T06:25:51;5.87;;;2.93;;
71696;SDS011;59528;59.082;37.926;2022-08-01T06:28:17;7.17;;;3.37;;
71696;SDS011;59528;59.082;37.926;2022-08-01T06:30:42;4.03;;;2.70;;
71696;SDS011;59528;59.082;37.926;2022-08-01T06:33:08;7.03;;;2.70;;
71696;SDS011;59528;59.082;37.926;2022-08-01T06:35:34;5.77;;;2.80;;
71696;SDS011;59528;59.082;37.926;2022-08-01T06:37:59;4.97;;;2.70;;
71696;SDS011;59528;59.082;37.926;2022-08-01T06:40:25;8.20;;;3.17;;
71696;SDS011;59528;59.082;37.926;2022-08-01T06:42:50;4.13;;;2.50;;
71696;SDS011;59528;59.082;37.926;2022-08-01T06:45:16;4.67;;;2.63;;
71696;SDS011;59528;59.082;37.926;2022-08-01T06:47:42;4.10;;;2.73;;
71696;SDS011;59528;59.082;37.926;2022-08-01T06:50:09;3.20;;;2.20;;
71696;SDS011;59528;59.082;37.926;2022-08-01T06:52:35;2.33;;;1.70;;
71696;SDS011;59528;59.082;37.926;2022-08-01T06:55:01;4.70;;;2.00;;
71696;SDS011;59528;59.082;37.926;2022-08-01T06:57:27;3.13;;;1.80;;
71696;SDS011;59528;59.082;37.926;2022-08-01T06:59:52;4.47;;;1.70;;
71696;SDS011;59528;59.082;37.926;2022-08-01T07:02:18;1.33;;;1.23;;
71696;SDS011;59528;59.082;37.926;2022-08-01T07:04:44;2.23;;;1.67;;
71696;SDS011;59528;59.082;37.926;2022-08-01T07:07:09;1.80;;;1.60;;
71696;SDS011;59528;59.082;37.926;2022-08-01T07:09:35;3.07;;;1.20;;
71696;SDS011;59528;59.082;37.926;2022-08-01T07:12:00;2.57;;;1.10;;
71696;SDS011;59528;59.082;37.926;2022-08-01T07:14:26;1.70;;;1.33;;
71696;SDS011;59528;59.082;37.926;2022-08-01T07:16:51;1.57;;;1.03;;
71696;SDS011;59528;59.082;37.926;2022-08-01T07:19:17;0.97;;;0.87;;
71696;SDS011;59528;59.082;37.926;2022-08-01T07:21:43;2.13;;;1.00;;
71696;SDS011;59528;59.082;37.926;2022-08-01T07:24:09;1.87;;;1.10;;
71696;SDS011;59528;59.082;37.926;2022-08-01T07:26:35;2.83;;;0.90;;
71696;SDS011;59528;59.082;37.926;2022-08-01T07:29:00;1.23;;;1.07;;
71696;SDS011;59528;59.082;37.926;2022-08-01T07:31:27;6.07;;;1.07;;
71696;SDS011;59528;59.082;37.926;2022-08-01T07:33:53;1.33;;;0.90;;
71696;SDS011;59528;59.082;37.926;2022-08-01T07:36:18;2.33;;;1.00;;
71696;SDS011;59528;59.082;37.926;2022-08-01T07:38:44;3.87;;;1.03;;
71696;SDS011;59528;59.082;37.926;2022-08-01T07:41:10;2.50;;;1.10;;
71696;SDS011;59528;59.082;37.926;2022-08-01T07:43:36;1.73;;;1.00;;
71696;SDS011;59528;59.082;37.926;2022-08-01T07:46:02;1.30;;;0.90;;
71696;SDS011;59528;59.082;37.926;2022-08-01T07:48:29;4.77;;;0.90;;
71696;SDS011;59528;59.082;37.926;2022-08-01T07:50:55;2.70;;;1.10;;
71696;SDS011;59528;59.082;37.926;2022-08-01T07:53:20;0.93;;;0.80;;
71696;SDS011;59528;59.082;37.926;2022-08-01T07:55:46;1.80;;;0.93;;
71696;SDS011;59528;59.082;37.926;2022-08-01T07:58:12;1.63;;;0.80;;
71696;SDS011;59528;59.082;37.926;2022-08-01T08:00:37;2.63;;;0.97;;
71696;SDS011;59528;59.082;37.926;2022-08-01T08:03:03;1.77;;;1.00;;
71696;SDS011;59528;59.082;37.926;2022-08-01T08:05:29;1.10;;;0.90;;
71696;SDS011;59528;59.082;37.926;2022-08-01T08:07:55;1.60;;;1.27;;
71696;SDS011;59528;59.082;37.926;2022-08-01T08:10:20;1.60;;;1.10;;
71696;SDS011;59528;59.082;37.926;2022-08-01T08:12:46;1.80;;;1.20;;
71696;SDS011;59528;59.082;37.926;2022-08-01T08:15:13;1.27;;;1.17;;
71696;SDS011;59528;59.082;37.926;2022-08-01T08:17:39;1.20;;;0.90;;
71696;SDS011;59528;59.082;37.926;2022-08-01T08:20:06;1.37;;;1.00;;
71696;SDS011;59528;59.082;37.926;2022-08-01T08:22:32;2.80;;;0.87;;
71696;SDS011;59528;59.082;37.926;2022-08-01T08:24:57;1.03;;;0.87;;
71696;SDS011;59528;59.082;37.926;2022-08-01T08:27:23;0.80;;;0.80;;
71696;SDS011;59528;59.082;37.926;2022-08-01T08:29:48;1.43;;;0.90;;
71696;SDS011;59528;59.082;37.926;2022-08-01T08:32:14;0.90;;;0.83;;
71696;SDS011;59528;59.082;37.926;2022-08-01T08:34:40;0.87;;;0.80;;
71696;SDS011;59528;59.082;37.926;2022-08-01T08:37:05;0.80;;;0.80;;
71696;SDS011;59528;59.082;37.926;2022-08-01T08:39:31;1.03;;;0.80;;
71696;SDS011;59528;59.082;37.926;2022-08-01T08:41:59;2.20;;;0.97;;
71696;SDS011;59528;59.082;37.926;2022-08-01T08:44:24;1.97;;;0.80;;
71696;SDS011;59528;59.082;37.926;2022-08-01T08:46:50;3.30;;;1.00;;
71696;SDS011;59528;59.082;37.926;2022-08-01T08:49:23;1.80;;;1.00;;
71696;SDS011;59528;59.082;37.926;2022-08-01T08:51:50;2.07;;;1.10;;
71696;SDS011;59528;59.082;37.926;2022-08-01T08:54:16;1.47;;;0.77;;
71696;SDS011;59528;59.082;37.926;2022-08-01T08:56:46;0.80;;;0.70;;
71696;SDS011;59528;59.082;37.926;2022-08-01T08:59:12;1.83;;;0.70;;
71696;SDS011;59528;59.082;37.926;2022-08-01T09:01:38;0.70;;;0.70;;
71696;SDS011;59528;59.082;37.926;2022-08-01T09:04:04;1.00;;;0.73;;
71696;SDS011;59528;59.082;37.926;2022-08-01T09:06:30;2.80;;;0.90;;
71696;SDS011;59528;59.082;37.926;2022-08-01T09:08:56;1.03;;;0.73;;
71696;SDS011;59528;59.082;37.926;2022-08-01T09:11:22;0.87;;;0.80;;
71696;SDS011;59528;59.082;37.926;2022-08-01T09:19:25;1.60;;;0.80;;
71696;SDS011;59528;59.082;37.926;2022-08-01T09:24:22;0.93;;;0.80;;
71696;SDS011;59528;59.082;37.926;2022-08-01T09:26:47;2.37;;;0.80;;
71696;SDS011;59528;59.082;37.926;2022-08-01T09:29:33;0.80;;;0.80;;
71696;SDS011;59528;59.082;37.926;2022-08-01T09:31:58;0.90;;;0.80;;
71696;SDS011;59528;59.082;37.926;2022-08-01T09:34:30;1.00;;;0.80;;
71696;SDS011;59528;59.082;37.926;2022-08-01T09:36:59;1.53;;;0.70;;
71696;SDS011;59528;59.082;37.926;2022-08-01T09:39:26;3.77;;;1.00;;
71696;SDS011;59528;59.082;37.926;2022-08-01T09:41:53;1.30;;;1.00;;
71696;SDS011;59528;59.082;37.926;2022-08-01T09:44:18;2.87;;;1.30;;
71696;SDS011;59528;59.082;37.926;2022-08-01T09:46:53;1.10;;;0.90;;
71696;SDS011;59528;59.082;37.926;2022-08-01T09:49:40;1.20;;;0.90;;
71696;SDS011;59528;59.082;37.926;2022-08-01T09:54:36;2.03;;;1.00;;
71696;SDS011;59528;59.082;37.926;2022-08-01T09:57:14;2.40;;;0.90;;
71696;SDS011;59528;59.082;37.926;2022-08-01T09:59:42;1.50;;;0.90;;
71696;SDS011;59528;59.082;37.926;2022-08-01T10:02:08;1.47;;;0.80;;
71696;SDS011;59528;59.082;37.926;2022-08-01T10:04:35;1.60;;;1.00;;
71696;SDS011;59528;59.082;37.926;2022-08-01T10:07:05;2.23;;;1.10;;
71696;SDS011;59528;59.082;37.926;2022-08-01T10:09:34;1.30;;;1.20;;
71696;SDS011;59528;59.082;37.926;2022-08-01T10:12:00;1.40;;;1.30;;
71696;SDS011;59528;59.082;37.926;2022-08-01T10:14:27;1.27;;;1.00;;
71696;SDS011;59528;59.082;37.926;2022-08-01T10:16:53;3.07;;;1.10;;
71696;SDS011;59528;59.082;37.926;2022-08-01T10:19:24;3.30;;;1.10;;
71696;SDS011;59528;59.082;37.926;2022-08-01T10:21:50;1.70;;;1.00;;
71696;SDS011;59528;59.082;37.926;2022-08-01T10:24:21;1.83;;;0.80;;
71696;SDS011;59528;59.082;37.926;2022-08-01T10:26:48;2.17;;;1.50;;
71696;SDS011;59528;59.082;37.926;2022-08-01T10:29:17;3.03;;;1.75;;
71696;SDS011;59528;59.082;37.926;2022-08-01T10:31:44;1.20;;;1.00;;
71696;SDS011;59528;59.082;37.926;2022-08-01T10:34:09;2.17;;;1.00;;
71696;SDS011;59528;59.082;37.926;2022-08-01T10:36:36;1.35;;;0.85;;
71696;SDS011;59528;59.082;37.926;2022-08-01T10:39:06;0.70;;;0.70;;
71696;SDS011;59528;59.082;37.926;2022-08-01T10:41:33;0.90;;;0.88;;
71696;SDS011;59528;59.082;37.926;2022-08-01T10:44:03;1.17;;;0.80;;
71696;SDS011;59528;59.082;37.926;2022-08-01T10:46:30;1.65;;;1.00;;
71696;SDS011;59528;59.082;37.926;2022-08-01T10:49:01;1.85;;;1.00;;
71696;SDS011;59528;59.082;37.926;2022-08-01T10:51:28;2.33;;;0.85;;
71696;SDS011;59528;59.082;37.926;2022-08-01T10:53:54;1.88;;;1.10;;
71696;SDS011;59528;59.082;37.926;2022-08-01T10:56:20;1.25;;;1.00;;
71696;SDS011;59528;59.082;37.926;2022-08-01T10:58:47;2.13;;;0.93;;
71696;SDS011;59528;59.082;37.926;2022-08-01T11:03:42;1.00;;;0.90;;
71696;SDS011;59528;59.082;37.926;2022-08-01T11:06:18;1.10;;;0.80;;
71696;SDS011;59528;59.082;37.926;2022-08-01T11:08:52;2.00;;;1.10;;
71696;SDS011;59528;59.082;37.926;2022-08-01T11:11:18;2.70;;;1.17;;
71696;SDS011;59528;59.082;37.926;2022-08-01T11:16:42;2.13;;;1.10;;
71696;SDS011;59528;59.082;37.926;2022-08-01T11:19:08;1.90;;;1.00;;
71696;SDS011;59528;59.082;37.926;2022-08-01T11:32:50;4.13;;;0.90;;
71696;SDS011;59528;59.082;37.926;2022-08-01T11:35:16;1.90;;;1.00;;
71696;SDS011;59528;59.082;37.926;2022-08-01T11:37:42;1.05;;;0.90;;
71696;SDS011;59528;59.082;37.926;2022-08-01T11:40:15;3.42;;;1.17;;
71696;SDS011;59528;59.082;37.926;2022-08-01T11:42:40;2.65;;;1.15;;
71696;SDS011;59528;59.082;37.926;2022-08-01T11:45:06;3.00;;;1.00;;
71696;SDS011;59528;59.082;37.926;2022-08-01T11:47:47;1.55;;;0.98;;
71696;SDS011;59528;59.082;37.926;2022-08-01T11:53:04;2.55;;;0.90;;
71696;SDS011;59528;59.082;37.926;2022-08-01T11:55:30;1.50;;;1.00;;
71696;SDS011;59528;59.082;37.926;2022-08-01T11:57:59;0.95;;;0.80;;
71696;SDS011;59528;59.082;37.926;2022-08-01T12:00:25;1.70;;;1.00;;
71696;SDS011;59528;59.082;37.926;2022-08-01T12:03:24;2.75;;;0.85;;
71696;SDS011;59528;59.082;37.926;2022-08-01T12:05:43;1.20;;;0.93;;
71696;SDS011;59528;59.082;37.926;2022-08-01T12:08:09;0.93;;;0.82;;
71696;SDS011;59528;59.082;37.926;2022-08-01T12:10:34;0.95;;;0.75;;
71696;SDS011;59528;59.082;37.926;2022-08-01T12:13:05;1.00;;;0.90;;
71696;SDS011;59528;59.082;37.926;2022-08-01T12:15:35;1.20;;;0.80;;
71696;SDS011;59528;59.082;37.926;2022-08-01T12:18:02;1.20;;;0.80;;
71696;SDS011;59528;59.082;37.926;2022-08-01T12:20:30;5.03;;;0.80;;
71696;SDS011;59528;59.082;37.926;2022-08-01T12:22:57;1.05;;;0.75;;
71696;SDS011;59528;59.082;37.926;2022-08-01T12:25:23;1.00;;;0.90;;
71696;SDS011;59528;59.082;37.926;2022-08-01T12:27:49;2.78;;;1.10;;
71696;SDS011;59528;59.082;37.926;2022-08-01T12:30:19;1.80;;;0.93;;
71696;SDS011;59528;59.082;37.926;2022-08-01T12:32:48;2.42;;;0.90;;
71696;SDS011;59528;59.082;37.926;2022-08-01T12:35:14;1.52;;;0.90;;
71696;SDS011;59528;59.082;37.926;2022-08-01T12:37:41;1.45;;;1.00;;
71696;SDS011;59528;59.082;37.926;2022-08-01T12:40:17;1.08;;;0.70;;
71696;SDS011;59528;59.082;37.926;2022-08-01T12:42:45;1.27;;;0.90;;
71696;SDS011;59528;59.082;37.926;2022-08-01T12:45:12;2.03;;;0.82;;
71696;SDS011;59528;59.082;37.926;2022-08-01T12:47:39;1.67;;;0.98;;
71696;SDS011;59528;59.082;37.926;2022-08-01T12:50:10;2.15;;;1.20;;
71696;SDS011;59528;59.082;37.926;2022-08-01T12:52:36;1.13;;;0.98;;
71696;SDS011;59528;59.082;37.926;2022-08-01T12:57:31;2.40;;;0.80;;
71696;SDS011;59528;59.082;37.926;2022-08-01T13:02:36;2.83;;;0.98;;
71696;SDS011;59528;59.082;37.926;2022-08-01T13:05:02;1.85;;;0.85;;
71696;SDS011;59528;59.082;37.926;2022-08-01T13:07:35;2.80;;;1.10;;
71696;SDS011;59528;59.082;37.926;2022-08-01T13:10:00;3.93;;;1.00;;
71696;SDS011;59528;59.082;37.926;2022-08-01T13:12:26;2.27;;;0.90;;
71696;SDS011;59528;59.082;37.926;2022-08-01T13:14:52;2.63;;;1.10;;
71696;SDS011;59528;59.082;37.926;2022-08-01T13:17:30;4.73;;;1.20;;
71696;SDS011;59528;59.082;37.926;2022-08-01T13:19:56;7.67;;;5.83;;
71696;SDS011;59528;59.082;37.926;2022-08-01T13:22:30;20.88;;;14.52;;
71696;SDS011;59528;59.082;37.926;2022-08-01T13:25:08;10.65;;;6.07;;
71696;SDS011;59528;59.082;37.926;2022-08-01T13:27:34;8.88;;;2.25;;
71696;SDS011;59528;59.082;37.926;2022-08-01T13:30:09;2.38;;;1.70;;
71696;SDS011;59528;59.082;37.926;2022-08-01T13:32:35;1.25;;;1.10;;
71696;SDS011;59528;59.082;37.926;2022-08-01T13:35:02;2.60;;;1.17;;
71696;SDS011;59528;59.082;37.926;2022-08-01T13:37:28;4.25;;;0.90;;
71696;SDS011;59528;59.082;37.926;2022-08-01T13:39:53;2.47;;;0.90;;
71696;SDS011;59528;59.082;37.926;2022-08-01T13:42:19;2.07;;;1.03;;
71696;SDS011;59528;59.082;37.926;2022-08-01T13:44:44;0.77;;;0.70;;
71696;SDS011;59528;59.082;37.926;2022-08-01T13:47:11;2.50;;;0.97;;
71696;SDS011;59528;59.082;37.926;2022-08-01T13:49:37;2.63;;;0.80;;
71696;SDS011;59528;59.082;37.926;2022-08-01T13:52:02;2.47;;;0.80;;
71696;SDS011;59528;59.082;37.926;2022-08-01T13:54:28;4.20;;;1.10;;
71696;SDS011;59528;59.082;37.926;2022-08-01T13:56:54;1.20;;;1.00;;
71696;SDS011;59528;59.082;37.926;2022-08-01T13:59:20;2.20;;;0.90;;
71696;SDS011;59528;59.082;37.926;2022-08-01T14:01:46;0.87;;;0.77;;
71696;SDS011;59528;59.082;37.926;2022-08-01T14:04:12;2.10;;;0.83;;
71696;SDS011;59528;59.082;37.926;2022-08-01T14:06:38;2.17;;;1.07;;
71696;SDS011;59528;59.082;37.926;2022-08-01T14:09:03;1.10;;;0.93;;
71696;SDS011;59528;59.082;37.926;2022-08-01T14:11:29;2.17;;;0.87;;
71696;SDS011;59528;59.082;37.926;2022-08-01T14:13:55;3.80;;;0.90;;
71696;SDS011;59528;59.082;37.926;2022-08-01T14:16:20;2.30;;;0.83;;
71696;SDS011;59528;59.082;37.926;2022-08-01T14:18:46;2.70;;;0.90;;
71696;SDS011;59528;59.082;37.926;2022-08-01T14:21:11;2.00;;;1.10;;
71696;SDS011;59528;59.082;37.926;2022-08-01T14:23:37;1.53;;;0.70;;
71696;SDS011;59528;59.082;37.926;2022-08-01T14:26:03;0.80;;;0.80;;
71696;SDS011;59528;59.082;37.926;2022-08-01T14:28:29;1.20;;;0.80;;
71696;SDS011;59528;59.082;37.926;2022-08-01T14:30:58;0.90;;;0.90;;
71696;SDS011;59528;59.082;37.926;2022-08-01T14:33:23;1.80;;;0.77;;
71696;SDS011;59528;59.082;37.926;2022-08-01T14:35:49;2.17;;;1.00;;
71696;SDS011;59528;59.082;37.926;2022-08-01T14:38:14;1.23;;;0.90;;
71696;SDS011;59528;59.082;37.926;2022-08-01T14:40:40;2.80;;;1.03;;
71696;SDS011;59528;59.082;37.926;2022-08-01T14:43:06;1.63;;;0.90;;
71696;SDS011;59528;59.082;37.926;2022-08-01T14:45:32;1.40;;;1.00;;
71696;SDS011;59528;59.082;37.926;2022-08-01T14:47:58;1.00;;;0.90;;
71696;SDS011;59528;59.082;37.926;2022-08-01T14:50:24;2.40;;;0.93;;
71696;SDS011;59528;59.082;37.926;2022-08-01T14:52:52;3.33;;;1.00;;
71696;SDS011;59528;59.082;37.926;2022-08-01T14:55:17;0.80;;;0.80;;
71696;SDS011;59528;59.082;37.926;2022-08-01T14:57:43;2.10;;;0.70;;
71696;SDS011;59528;59.082;37.926;2022-08-01T15:00:09;2.07;;;0.97;;
71696;SDS011;59528;59.082;37.926;2022-08-01T15:02:44;1.83;;;0.87;;
71696;SDS011;59528;59.082;37.926;2022-08-01T15:05:43;1.17;;;0.80;;
71696;SDS011;59528;59.082;37.926;2022-08-01T15:08:09;2.20;;;0.90;;
71696;SDS011;59528;59.082;37.926;2022-08-01T15:10:34;6.27;;;1.00;;
71696;SDS011;59528;59.082;37.926;2022-08-01T15:13:00;1.27;;;0.90;;
71696;SDS011;59528;59.082;37.926;2022-08-01T15:15:26;1.50;;;1.10;;
71696;SDS011;59528;59.082;37.926;2022-08-01T15:17:52;1.20;;;0.83;;
71696;SDS011;59528;59.082;37.926;2022-08-01T15:20:18;3.07;;;1.10;;
71696;SDS011;59528;59.082;37.926;2022-08-01T15:22:44;2.20;;;1.10;;